Las horas y fechas están en horario UTC
Sumar 1 hora en el horario de invierno y 2 en el de verano

Informes METAR cercanos

 

LEZL - Sevilla (civ/Mil, Spain
Distance from station: NNE 24km
Actualización: 24/04/2017 03:00
Despejado
Despejado
 Viento del SSO
Viento: SSO 11 km/h
Temperatura: 16°C
Rocío: 12°C
Humedad: 77%
Barómetro: 1015 hPa
Clouds: Despejado
Visibility: 10 km
2017/04/24 01:00 LEZL 240100Z AUTO 21006KT 180V240 9999 NCD 16/12 Q1015
LEMO - Moron (sp-Usafb), Spain
Distance from station: E 38km
Actualización: 24/04/2017 03:00
Parcialmente nuboso
Parcialmente nuboso
 Viento del S
Viento: S 9 km/h
Temperatura: 14°C
Rocío: 11°C
Humedad: 82%
Barómetro: 1016 hPa
Clouds: Parcialmente nuboso
Visibility: 9 km
2017/04/24 01:00 LEMO 240100Z 19005KT 9000 NSC 14/11 Q1016 NOSIG
LEJR - Jerez (civ/Mil), Spain
Distance from station: S 53km
Actualización: 24/04/2017 03:00
Despejado
Despejado
 Viento del calm
Viento: Calma
Temperatura: 13°C
Rocío: 11°C
Humedad: 88%
Barómetro: 1016 hPa
Clouds: Despejado
Visibility: 10 km
2017/04/24 01:00 LEJR 240100Z AUTO 00000KT 9999 NCD 13/11 Q1016
 
LERT - Rota Naval Stati, Spain
Distance from station: SSO 71km
Actualización: 24/04/2017 03:00
Despejado
Despejado
 Viento del SE
Viento: SE 20 km/h
Temperatura: 16°C
Rocío: 10°C
Humedad: 68%
Barómetro: 1016 hPa
Resumen: Despejado
Visibility: greater than 10 km
2017/04/24 01:00 LERT 240100Z 13011KT CAVOK 16/10 Q1016 NOSIG
LEBA - Cordoba Airport, Spain
Distance from station: ENE 128km
Actualización: 24/04/2017 03:00
Despejado
Despejado
 Viento del O
Viento: O 6 km/h
Temperatura: 17°C
Rocío: 10°C
Humedad: 64%
Barómetro: 1016 hPa
Clouds: Despejado
Visibility: 10 km
2017/04/24 01:00 LEBA 240100Z AUTO 28003KT 240V300 9999 NCD 17/10 Q1016
LXGB - Gibraltar (civ/M, Gibraltar
Distance from station: SSE 137km
Actualización: 24/04/2017 02:50
Muy nuboso
Muy nuboso
 Viento del E
Viento: E 24 km/h
Temperatura: 15°C
Rocío: 15°C
Humedad: 100%
Barómetro: 1017 hPa
Clouds: Muy nuboso
Visibility: 10 km
Cloud details: Muy nuboso 274 m
2017/04/24 00:50 LXGB 240050Z AUTO 09013KT 9999 // BKN009/// 15/15 Q1017
 
LEMG - Malaga (civ/Mil), Spain
Distance from station: ESE 150km
Actualización: 24/04/2017 03:00
Despejado
Despejado
 Viento del O
Viento: O 7 km/h
Temperatura: 14°C
Rocío: 10°C
Humedad: 77%
Barómetro: 1018 hPa
Resumen: Despejado
Visibility: greater than 10 km
2017/04/24 01:00 LEMG 240100Z 27004KT CAVOK 14/10 Q1018 NOSIG
GMTT - Tangier/Boukhalf, Morocco
Distance from station: S 169km
Actualización: 24/04/2017 03:00
Parcialmente nuboso
Parcialmente nuboso
 Viento del ESE
Viento: ESE 17 km/h
Temperatura: 16°C
Rocío: 13°C
Humedad: 83%
Barómetro: 1016 hPa
Clouds: Parcialmente nuboso
Visibility: 8 km
Cloud details: Few Clouds 488 m
Parcialmente nuboso 6096 m
2017/04/24 01:00 GMTT 240100Z 11009KT 8000 FEW016 SCT200 16/13 Q1016 NOSIG
LPFR - Faro, Portugal
Distance from station: O 172km
Actualización: 24/04/2017 03:00
Despejado
Despejado
 Viento del NNE
Viento: NNE 11 km/h
Temperatura: 17°C
Rocío: 15°C
Humedad: 88%
Barómetro: 1015 hPa
Resumen: Despejado
Visibility: greater than 10 km
2017/04/24 01:00 LPFR 240100Z 03006KT CAVOK 17/15 Q1015
 
LPBJ - Beja (por/Ger-Af, Portugal
Distance from station: ONO 192km
Actualización: 24/04/2017 03:00
Despejado
Despejado
 Viento del SO
Viento: SO 6 km/h
Temperatura: 14°C
Rocío: 9°C
Humedad: 72%
Barómetro: 1015 hPa
Resumen: Despejado
Visibility: greater than 10 km
2017/04/24 01:00 LPBJ 240100Z 22003KT CAVOK 14/09 Q1015
LEBZ - Talavera Ab/Bada, Spain
Distance from station: NNO 194km
Actualización: 23/04/2017 21:00
NOT Current
Few Clouds
Few Clouds
 Viento del OSO
Viento: OSO 13 km/h
Temperatura: 24°C
Rocío: 11°C
Humedad: 44%
Barómetro: 1013 hPa
Clouds: Few Clouds
Visibility: 10 km
Cloud details: Few Clouds 1372 m
2017/04/23 19:00 LEBZ 231900Z 25007KT 220V280 9999 FEW045 24/11 Q1013
LEMD - Madrid/Barajas, Spain
Distance from station: NE 415km
Actualización: 24/04/2017 03:00
Despejado
Despejado
 Viento del ESE
Viento: ESE 9 km/h
Temperatura: 15°C
Rocío: 4°C
Humedad: 48%
Barómetro: 1016 hPa
Resumen: Despejado
Visibility: greater than 10 km
2017/04/24 01:00 LEMD 240100Z 12005KT 090V150 CAVOK 15/04 Q1016 NOSIG